< < Back
Terminal Aerodrome Forecast


Current Version              Previous Versions:   1  2  3  4  5  6  7  8  9  

Terminal Aerodrome Forecast

092
FTUS42 KCHS 230500
TAFCHS
TAF
KCHS 230529Z 2306/2406 24005KT P6SM SKC
     FM231300 36010G15KT P6SM SCT040
     FM232000 33008KT P6SM SKC
     FM240000 VRB03KT P6SM SKC=

Latest METAR

782
SAUS80 KWBC 230700 RRA
MTRCHS
METAR KCHS 230656Z 28005KT 7SM CLR 18/16 A2977 RMK AO2 SLP081
T01780161


USA.gov is the U.S. government's official web portal to all federal, state and local government web resources and services.